Terminal Aerodrome Forecast
Issued by NWS Tulsa, OK

Home | Current Version | Previous Version | Text Only | Print | Product List | Glossary On
Versions: 1 2 3 4 5 6 7 8 9 10 11 12 13 14 15 16 17 18 19 20 21 22 23 24 25
117
FTUS44 KTSA 272205 AAA
TAFTUL
TAF AMD
KTUL 272205Z 2722/2818 16013KT P6SM FEW050 BKN250
      TEMPO 2800/2803 2SM TSRA BKN015CB
     FM280300 17008KT P6SM SCT040 SCT250
     FM280900 18008KT P6SM BKN020=

USA.gov is the U.S. government's official web portal to all federal, state and local government web resources and services.